createdAt,value
2018-08-23T00:01:28.475Z,95363.00
2018-08-23T00:04:02.830Z,95363.00
2018-08-23T00:06:31.990Z,95358.00
2018-08-23T00:09:01.315Z,95367.00
2018-08-23T00:11:32.423Z,95371.00
2018-08-23T00:14:01.580Z,95381.00
2018-08-23T00:16:36.004Z,95375.00
2018-08-23T00:19:05.338Z,95382.00
2018-08-23T00:21:41.084Z,95371.00
2018-08-23T00:24:26.435Z,95381.00
2018-08-23T00:26:57.851Z,95386.00
2018-08-23T00:29:33.254Z,95381.00
2018-08-23T00:32:03.791Z,95384.00
2018-08-23T00:34:35.237Z,95389.00
2018-08-23T00:37:05.170Z,95399.00
2018-08-23T00:39:34.332Z,95388.00
2018-08-23T00:42:05.717Z,95384.00
2018-08-23T00:44:54.458Z,95383.00
2018-08-23T00:47:28.360Z,95381.00
2018-08-23T00:49:57.498Z,95382.00
2018-08-23T00:52:50.315Z,95372.00
2018-08-23T00:55:25.654Z,95377.00
2018-08-23T00:57:54.854Z,95363.00
2018-08-23T01:00:25.410Z,95362.00
2018-08-23T01:03:02.159Z,95365.00
2018-08-23T01:05:35.165Z,95359.00
2018-08-23T01:08:05.217Z,95365.00
2018-08-23T01:10:34.272Z,95371.00
2018-08-23T01:13:03.983Z,95365.00
2018-08-23T01:15:33.387Z,95374.00
2018-08-23T01:18:16.729Z,95367.00
2018-08-23T01:20:47.042Z,95368.00
2018-08-23T01:23:16.222Z,95366.00
2018-08-23T01:25:46.470Z,95368.00
2018-08-23T01:28:16.006Z,95357.00
2018-08-23T01:30:45.994Z,95358.00
2018-08-23T01:33:22.154Z,95360.00
2018-08-23T01:35:52.082Z,95354.00
2018-08-23T01:38:21.254Z,95355.00
2018-08-23T01:40:55.696Z,95346.00
2018-08-23T01:43:24.859Z,95343.00
2018-08-23T01:45:54.006Z,95339.00
2018-08-23T01:48:23.198Z,95340.00
2018-08-23T01:50:52.387Z,95334.00
2018-08-23T01:53:23.442Z,95337.00
2018-08-23T01:55:52.594Z,95335.00
2018-08-23T01:58:21.786Z,95335.00
2018-08-23T02:01:12.538Z,95328.00
2018-08-23T02:03:41.961Z,95334.00
2018-08-23T02:06:11.138Z,95327.00
2018-08-23T02:08:40.235Z,95325.00
2018-08-23T02:11:09.488Z,95330.00
2018-08-23T02:13:38.684Z,95319.00
2018-08-23T02:16:07.906Z,95318.00
2018-08-23T02:18:37.014Z,95325.00
2018-08-23T02:21:10.387Z,95323.00
2018-08-23T02:23:59.061Z,95318.00
2018-08-23T02:26:34.993Z,95321.00
2018-08-23T02:29:04.149Z,95324.00
2018-08-23T02:31:33.305Z,95328.00
2018-08-23T02:34:02.551Z,95328.00
2018-08-23T02:36:31.709Z,95326.00
2018-08-23T02:39:02.204Z,95327.00
2018-08-23T02:41:31.498Z,95319.00
2018-08-23T02:44:00.710Z,95323.00
2018-08-23T02:46:31.876Z,95323.00
2018-08-23T02:49:01.086Z,95329.00
2018-08-23T02:51:42.065Z,95317.00
2018-08-23T02:54:13.340Z,95324.00
2018-08-23T02:56:47.618Z,95331.00
2018-08-23T02:59:16.753Z,95329.00
2018-08-23T03:01:47.218Z,95332.00
2018-08-23T03:04:18.381Z,95331.00
2018-08-23T03:06:56.253Z,95331.00
2018-08-23T03:09:35.070Z,95328.00
2018-08-23T03:12:09.413Z,95328.00
2018-08-23T03:14:39.355Z,95322.00
2018-08-23T03:17:13.890Z,95322.00
2018-08-23T03:20:01.351Z,95329.00
2018-08-23T03:22:31.590Z,95332.00
2018-08-23T03:25:02.858Z,95324.00
2018-08-23T03:27:32.354Z,95323.00
2018-08-23T03:30:02.374Z,95328.00
2018-08-23T03:32:31.875Z,95330.00
2018-08-23T03:35:01.509Z,95330.00
2018-08-23T03:37:30.654Z,95333.00
2018-08-23T03:39:59.999Z,95333.00
2018-08-23T03:42:29.294Z,95330.00
2018-08-23T03:44:59.222Z,95326.00
2018-08-23T03:47:36.163Z,95322.00
2018-08-23T03:50:05.703Z,95331.00
2018-08-23T03:52:41.870Z,95326.00
2018-08-23T03:55:11.873Z,95323.00
2018-08-23T03:57:46.348Z,95329.00
2018-08-23T04:00:15.465Z,95326.00
2018-08-23T04:02:45.314Z,95325.00
2018-08-23T04:05:19.586Z,95326.00
2018-08-23T04:07:48.726Z,95336.00
2018-08-23T04:10:17.926Z,95337.00
2018-08-23T04:12:47.111Z,95334.00
2018-08-23T04:15:24.538Z,95333.00
2018-08-23T04:17:53.630Z,95343.00
2018-08-23T04:20:22.806Z,95327.00
2018-08-23T04:22:52.014Z,95335.00
2018-08-23T04:25:21.247Z,95335.00
2018-08-23T04:27:50.474Z,95339.00
2018-08-23T04:30:19.906Z,95336.00
2018-08-23T04:32:49.772Z,95341.00
2018-08-23T04:35:24.284Z,95337.00
2018-08-23T04:37:53.370Z,95339.00
2018-08-23T04:40:22.520Z,95340.00
2018-08-23T04:42:51.719Z,95333.00
2018-08-23T04:45:28.458Z,95333.00
2018-08-23T04:48:05.950Z,95336.00
2018-08-23T04:50:35.407Z,95337.00
2018-08-23T04:53:04.765Z,95334.00
2018-08-23T04:55:33.862Z,95338.00
2018-08-23T04:58:03.682Z,95335.00
2018-08-23T05:00:33.026Z,95332.00
2018-08-23T05:03:02.255Z,95343.00
2018-08-23T05:05:31.414Z,95341.00
2018-08-23T05:08:00.565Z,95336.00
2018-08-23T05:10:29.756Z,95330.00
2018-08-23T05:12:58.936Z,95341.00
2018-08-23T05:15:28.134Z,95333.00
2018-08-23T05:17:57.363Z,95335.00
2018-08-23T05:20:27.368Z,95338.00
2018-08-23T05:23:01.835Z,95332.00
2018-08-23T05:25:30.921Z,95338.00
2018-08-23T05:28:11.310Z,95329.00
2018-08-23T05:30:41.922Z,95335.00
2018-08-23T05:33:13.083Z,95325.00
2018-08-23T05:35:42.572Z,95309.00
2018-08-23T05:38:12.316Z,95320.00
2018-08-23T05:40:44.483Z,95322.00
2018-08-23T05:43:14.294Z,95330.00
2018-08-23T05:45:47.517Z,95325.00
2018-08-23T05:48:23.313Z,95320.00
2018-08-23T05:50:52.667Z,95327.00
2018-08-23T05:53:21.877Z,95331.00
2018-08-23T05:55:52.684Z,95331.00
2018-08-23T05:58:24.987Z,95331.00
2018-08-23T06:00:54.363Z,95333.00
2018-08-23T06:03:23.471Z,95338.00
2018-08-23T06:05:52.884Z,95331.00
2018-08-23T06:08:22.221Z,95338.00
2018-08-23T06:10:56.539Z,95335.00
2018-08-23T06:13:25.855Z,95339.00
2018-08-23T06:15:56.218Z,95343.00
2018-08-23T06:18:26.249Z,95334.00
2018-08-23T06:21:01.749Z,95337.00
2018-08-23T06:24:12.156Z,95339.00
2018-08-23T06:26:47.475Z,95347.00
2018-08-23T06:29:24.302Z,95335.00
2018-08-23T06:31:59.855Z,95343.00
2018-08-23T06:34:30.634Z,95333.00
2018-08-23T06:36:59.870Z,95343.00
2018-08-23T06:39:29.085Z,95340.00
2018-08-23T06:42:00.485Z,95337.00
2018-08-23T06:44:41.013Z,95346.00
2018-08-23T06:47:12.293Z,95339.00
2018-08-23T06:49:42.459Z,95342.00
2018-08-23T06:52:16.858Z,95342.00
2018-08-23T06:54:48.039Z,95355.00
2018-08-23T06:57:18.121Z,95346.00
2018-08-23T06:59:48.206Z,95340.00
2018-08-23T07:02:18.202Z,95339.00
2018-08-23T07:04:48.287Z,95336.00
2018-08-23T07:07:19.119Z,95341.00
2018-08-23T07:09:48.154Z,95340.00
2018-08-23T07:12:18.334Z,95333.00
2018-08-23T07:14:49.594Z,95318.00
2018-08-23T07:17:24.163Z,95331.00
2018-08-23T07:19:53.594Z,95332.00
2018-08-23T07:22:25.919Z,95331.00
2018-08-23T07:24:56.738Z,95325.00
2018-08-23T07:27:27.036Z,95320.00
2018-08-23T07:29:57.524Z,95325.00
2018-08-23T07:32:29.038Z,95318.00
2018-08-23T07:35:18.187Z,95319.00
2018-08-23T07:37:50.674Z,95326.00
2018-08-23T07:40:20.902Z,95325.00
2018-08-23T07:42:51.334Z,95323.00
2018-08-23T07:45:20.486Z,95324.00
2018-08-23T07:47:51.978Z,95325.00
2018-08-23T07:50:21.178Z,95324.00
2018-08-23T07:52:51.712Z,95327.00
2018-08-23T07:55:20.807Z,95329.00
2018-08-23T07:57:49.963Z,95327.00
2018-08-23T08:00:29.109Z,95325.00
2018-08-23T08:02:58.383Z,95329.00
2018-08-23T08:05:29.602Z,95331.00
2018-08-23T08:07:58.762Z,95335.00
2018-08-23T08:10:34.791Z,95332.00
2018-08-23T08:13:04.020Z,95329.00
2018-08-23T08:15:33.144Z,95336.00
2018-08-23T08:18:12.031Z,95334.00
2018-08-23T08:20:41.317Z,95337.00
2018-08-23T08:23:10.502Z,95332.00
2018-08-23T08:25:40.033Z,95332.00
2018-08-23T08:28:15.170Z,95329.00
2018-08-23T08:30:45.865Z,95336.00
2018-08-23T08:33:20.269Z,95335.00
2018-08-23T08:35:49.335Z,95341.00
2018-08-23T08:38:19.062Z,95332.00
2018-08-23T08:40:52.301Z,95337.00
2018-08-23T08:43:21.468Z,95331.00
2018-08-23T08:46:01.074Z,95334.00
2018-08-23T08:48:31.572Z,95330.00
2018-08-23T08:51:21.394Z,95321.00
2018-08-23T08:53:50.950Z,95329.00
2018-08-23T08:56:27.546Z,95325.00
2018-08-23T08:58:56.638Z,95317.00
2018-08-23T09:01:32.691Z,95318.00
2018-08-23T09:04:02.063Z,95318.00
2018-08-23T09:06:36.481Z,95317.00
2018-08-23T09:09:23.294Z,95304.00
2018-08-23T09:11:52.438Z,95315.00
2018-08-23T09:14:21.593Z,95309.00
2018-08-23T09:16:50.699Z,95318.00
2018-08-23T09:19:19.882Z,95306.00
2018-08-23T09:22:01.198Z,95304.00
2018-08-23T09:24:30.393Z,95307.00
2018-08-23T09:26:59.602Z,95315.00
2018-08-23T09:29:37.818Z,95307.00
2018-08-23T09:32:19.720Z,95299.00
2018-08-23T09:34:50.114Z,95295.00
2018-08-23T09:37:19.646Z,95295.00
2018-08-23T09:39:49.598Z,95289.00
2018-08-23T09:42:19.669Z,95296.00
2018-08-23T09:45:05.562Z,95294.00
2018-08-23T09:47:34.804Z,95296.00
2018-08-23T09:50:03.922Z,95293.00
2018-08-23T09:52:35.215Z,95294.00
2018-08-23T09:55:04.307Z,95291.00
2018-08-23T09:57:33.490Z,95277.00
2018-08-23T10:00:02.710Z,95277.00
2018-08-23T10:02:37.122Z,95275.00
2018-08-23T10:05:07.660Z,95264.00
2018-08-23T10:07:42.127Z,95272.00
2018-08-23T10:10:16.543Z,95270.00
2018-08-23T10:12:50.926Z,95267.00
2018-08-23T10:15:25.522Z,95274.00
2018-08-23T10:18:00.134Z,95264.00
2018-08-23T10:20:34.671Z,95266.00
2018-08-23T10:23:09.211Z,95266.00
2018-08-23T10:25:43.038Z,95255.00
2018-08-23T10:28:14.190Z,95259.00
2018-08-23T10:30:43.678Z,95268.00
2018-08-23T10:33:12.842Z,95250.00
2018-08-23T10:35:47.302Z,95252.00
2018-08-23T10:38:20.331Z,95255.00
2018-08-23T10:40:51.196Z,95252.00
2018-08-23T10:43:25.580Z,95249.00
2018-08-23T10:45:56.615Z,95246.00
2018-08-23T10:48:25.780Z,95253.00
2018-08-23T10:50:54.975Z,95251.00
2018-08-23T10:53:24.158Z,95248.00
2018-08-23T10:55:53.377Z,95248.00
2018-08-23T10:58:22.573Z,95240.00
2018-08-23T11:00:51.754Z,95237.00
2018-08-23T11:03:20.934Z,95244.00
2018-08-23T11:05:50.223Z,95239.00
2018-08-23T11:08:24.038Z,95247.00
2018-08-23T11:10:58.462Z,95243.00
2018-08-23T11:13:32.886Z,95230.00
2018-08-23T11:16:07.362Z,95229.00
2018-08-23T11:18:41.848Z,95233.00
2018-08-23T11:21:15.894Z,95227.00
2018-08-23T11:23:45.854Z,95229.00
2018-08-23T11:26:20.065Z,95228.00
2018-08-23T11:28:50.807Z,95233.00
2018-08-23T11:31:25.652Z,95233.00
2018-08-23T11:33:55.594Z,95228.00
2018-08-23T11:36:24.765Z,95218.00
2018-08-23T11:38:54.058Z,95217.00
2018-08-23T11:41:23.170Z,95204.00
2018-08-23T11:43:52.362Z,95209.00
2018-08-23T11:46:22.379Z,95208.00
2018-08-23T11:48:51.560Z,95207.00
2018-08-23T11:51:20.773Z,95210.00
2018-08-23T11:53:50.823Z,95202.00
2018-08-23T11:56:20.782Z,95205.00
2018-08-23T11:58:50.802Z,95195.00
2018-08-23T12:01:20.854Z,95207.00
2018-08-23T12:03:50.824Z,95202.00
2018-08-23T12:06:20.912Z,95190.00
2018-08-23T12:08:50.815Z,95185.00
2018-08-23T12:11:20.887Z,95186.00
2018-08-23T12:13:51.375Z,95174.00
2018-08-23T12:16:20.963Z,95170.00
2018-08-23T12:18:50.958Z,95166.00
2018-08-23T12:21:20.923Z,95158.00
2018-08-23T12:23:51.058Z,95156.00
2018-08-23T12:26:21.120Z,95152.00
2018-08-23T12:28:56.327Z,95157.00
2018-08-23T12:31:25.478Z,95153.00
2018-08-23T12:33:54.673Z,95148.00
2018-08-23T12:36:29.296Z,95155.00
2018-08-23T12:39:03.689Z,95145.00
2018-08-23T12:41:38.107Z,95146.00
2018-08-23T12:44:07.253Z,95133.00
2018-08-23T12:46:36.502Z,95131.00
2018-08-23T12:49:05.670Z,95122.00
2018-08-23T12:51:34.844Z,95122.00
2018-08-23T12:54:04.089Z,95123.00
2018-08-23T12:56:33.242Z,95113.00
2018-08-23T12:59:02.381Z,95132.00
2018-08-23T13:01:31.574Z,95129.00
2018-08-23T13:04:00.861Z,95131.00
2018-08-23T13:06:29.982Z,95122.00
2018-08-23T13:08:59.070Z,95120.00
2018-08-23T13:11:28.281Z,95121.00
2018-08-23T13:13:57.406Z,95123.00
2018-08-23T13:16:27.458Z,95112.00
2018-08-23T13:18:56.690Z,95118.00
2018-08-23T13:21:25.875Z,95106.00
2018-08-23T13:23:55.099Z,95115.00
2018-08-23T13:26:28.382Z,95128.00
2018-08-23T13:28:57.578Z,95113.00
2018-08-23T13:31:27.541Z,95110.00
2018-08-23T13:33:56.766Z,95101.00
2018-08-23T13:36:26.001Z,95113.00
2018-08-23T13:38:55.136Z,95095.00
2018-08-23T13:41:24.378Z,95101.00
2018-08-23T13:43:53.554Z,95103.00
2018-08-23T13:46:22.737Z,95099.00
2018-08-23T13:48:51.846Z,95100.00
2018-08-23T13:51:21.679Z,95104.00
2018-08-23T13:53:51.938Z,95099.00
2018-08-23T13:56:22.346Z,95089.00
2018-08-23T13:58:52.363Z,95072.00
2018-08-23T14:01:25.235Z,95088.00
2018-08-23T14:03:55.463Z,95079.00
2018-08-23T14:06:24.771Z,95080.00
2018-08-23T14:08:53.853Z,95077.00
2018-08-23T14:11:23.058Z,95078.00
2018-08-23T14:13:52.246Z,95072.00
2018-08-23T14:16:22.108Z,95065.00
2018-08-23T14:18:52.036Z,95060.00
2018-08-23T14:21:22.122Z,95056.00
2018-08-23T14:23:52.131Z,95048.00
2018-08-23T14:26:22.259Z,95048.00
2018-08-23T14:28:52.183Z,95045.00
2018-08-23T14:31:22.166Z,95047.00
2018-08-23T14:33:52.125Z,95054.00
2018-08-23T14:36:22.250Z,95061.00
2018-08-23T14:38:52.220Z,95079.00
2018-08-23T14:41:22.195Z,95078.00
2018-08-23T14:43:52.302Z,95090.00
2018-08-23T14:46:27.460Z,95077.00
2018-08-23T14:48:56.636Z,95081.00
2018-08-23T14:51:25.806Z,95079.00
2018-08-23T14:53:54.986Z,95083.00
2018-08-23T14:56:29.272Z,95095.00
2018-08-23T14:58:58.506Z,95085.00
2018-08-23T15:01:27.563Z,95093.00
2018-08-23T15:03:56.774Z,95099.00
2018-08-23T15:06:25.986Z,95100.00
2018-08-23T15:08:55.206Z,95105.00
2018-08-23T15:11:24.382Z,95120.00
2018-08-23T15:13:53.515Z,95142.00
2018-08-23T15:16:22.753Z,95171.00
2018-08-23T15:18:52.683Z,95165.00
2018-08-23T15:21:23.546Z,95184.00
2018-08-23T15:23:52.820Z,95190.00
2018-08-23T15:26:22.669Z,95220.00
2018-08-23T15:28:52.738Z,95218.00
2018-08-23T15:31:22.695Z,95228.00
2018-08-23T15:33:52.862Z,95234.00
2018-08-23T15:36:22.698Z,95240.00
2018-08-23T15:38:52.883Z,95241.00
2018-08-23T15:41:22.848Z,95221.00
2018-08-23T15:43:52.914Z,95212.00
2018-08-23T15:46:24.467Z,95189.00
2018-08-23T15:48:53.629Z,95194.00
2018-08-23T15:51:22.993Z,95192.00
2018-08-23T15:53:52.895Z,95191.00
2018-08-23T15:56:23.016Z,95177.00
2018-08-23T15:58:53.244Z,95176.00
2018-08-23T16:01:22.871Z,95167.00
2018-08-23T16:03:52.882Z,95158.00
2018-08-23T16:06:22.899Z,95160.00
2018-08-23T16:08:59.254Z,95157.00
2018-08-23T16:11:28.450Z,95154.00
2018-08-23T16:13:57.578Z,95150.00
2018-08-23T16:16:32.838Z,95142.00
2018-08-23T16:19:07.323Z,95145.00
2018-08-23T16:21:38.602Z,95138.00
2018-08-23T16:24:07.602Z,95131.00
2018-08-23T16:26:42.047Z,95129.00
2018-08-23T16:29:11.144Z,95119.00
2018-08-23T16:31:40.339Z,95122.00
2018-08-23T16:34:09.486Z,95109.00
2018-08-23T16:36:38.585Z,95105.00
2018-08-23T16:39:08.585Z,95096.00
2018-08-23T16:41:37.850Z,95103.00
2018-08-23T16:44:06.894Z,95098.00
2018-08-23T16:46:36.149Z,95111.00
2018-08-23T16:49:05.265Z,95098.00
2018-08-23T16:51:34.392Z,95105.00
2018-08-23T16:54:03.525Z,95107.00
2018-08-23T16:56:32.695Z,95112.00
2018-08-23T16:59:01.899Z,95112.00
2018-08-23T17:01:31.147Z,95109.00
2018-08-23T17:04:00.383Z,95115.00
2018-08-23T17:06:29.826Z,95114.00
2018-08-23T17:08:58.974Z,95113.00
2018-08-23T17:11:28.118Z,95120.00
2018-08-23T17:13:57.337Z,95114.00
2018-08-23T17:16:32.561Z,95117.00
2018-08-23T17:19:01.795Z,95132.00
2018-08-23T17:21:31.074Z,95127.00
2018-08-23T17:24:00.290Z,95122.00
2018-08-23T17:26:29.438Z,95120.00
2018-08-23T17:28:58.598Z,95133.00
2018-08-23T17:31:27.758Z,95139.00
2018-08-23T17:33:56.907Z,95152.00
2018-08-23T17:36:26.122Z,95162.00
2018-08-23T17:38:55.274Z,95161.00
2018-08-23T17:41:24.490Z,95165.00
2018-08-23T17:43:53.903Z,95182.00
2018-08-23T17:46:23.907Z,95178.00
2018-08-23T17:48:53.946Z,95173.00
2018-08-23T17:51:23.883Z,95183.00
2018-08-23T17:53:53.942Z,95195.00
2018-08-23T17:56:23.978Z,95196.00
2018-08-23T17:58:53.962Z,95187.00
2018-08-23T18:01:24.043Z,95182.00
2018-08-23T18:03:54.010Z,95189.00
2018-08-23T18:06:24.120Z,95187.00
2018-08-23T18:08:54.063Z,95179.00
2018-08-23T18:11:24.138Z,95172.00
2018-08-23T18:13:54.026Z,95176.00
2018-08-23T18:16:29.282Z,95169.00
2018-08-23T18:18:58.515Z,95166.00
2018-08-23T18:21:27.677Z,95167.00
2018-08-23T18:23:56.786Z,95166.00
2018-08-23T18:26:25.934Z,95162.00
2018-08-23T18:28:55.246Z,95160.00
2018-08-23T18:31:24.430Z,95160.00
2018-08-23T18:33:54.279Z,95163.00
2018-08-23T18:36:24.226Z,95162.00
2018-08-23T18:38:54.387Z,95164.00
2018-08-23T18:41:24.476Z,95165.00
2018-08-23T18:43:54.419Z,95159.00
2018-08-23T18:46:24.606Z,95158.00
2018-08-23T18:48:57.668Z,95169.00
2018-08-23T18:51:29.058Z,95163.00
2018-08-23T18:53:58.939Z,95151.00
2018-08-23T18:56:29.011Z,95164.00
2018-08-23T18:58:58.514Z,95156.00
2018-08-23T19:01:27.597Z,95163.00
2018-08-23T19:03:57.050Z,95168.00
2018-08-23T19:06:32.678Z,95170.00
2018-08-23T19:09:01.827Z,95168.00
2018-08-23T19:11:31.093Z,95167.00
2018-08-23T19:14:00.171Z,95169.00
2018-08-23T19:16:34.621Z,95181.00
2018-08-23T19:19:03.908Z,95172.00
2018-08-23T19:21:33.142Z,95179.00
2018-08-23T19:24:02.417Z,95177.00
2018-08-23T19:26:32.354Z,95168.00
2018-08-23T19:29:01.590Z,95176.00
2018-08-23T19:31:30.711Z,95181.00
2018-08-23T19:33:59.863Z,95183.00
2018-08-23T19:36:28.982Z,95189.00
2018-08-23T19:38:58.155Z,95187.00
2018-08-23T19:41:27.403Z,95195.00
2018-08-23T19:43:56.510Z,95189.00
2018-08-23T19:46:30.884Z,95193.00
2018-08-23T19:49:05.251Z,95190.00
2018-08-23T19:51:34.509Z,95195.00
2018-08-23T19:54:03.646Z,95190.00
2018-08-23T19:56:32.867Z,95193.00
2018-08-23T19:59:02.099Z,95188.00
2018-08-23T20:01:31.484Z,95195.00
2018-08-23T20:04:00.594Z,95190.00
2018-08-23T20:06:29.752Z,95191.00
2018-08-23T20:08:58.782Z,95190.00
2018-08-23T20:11:27.968Z,95193.00
2018-08-23T20:13:57.231Z,95191.00
2018-08-23T20:16:27.233Z,95188.00
2018-08-23T20:18:56.468Z,95191.00
2018-08-23T20:21:25.631Z,95197.00
2018-08-23T20:23:55.305Z,95187.00
2018-08-23T20:26:25.355Z,95186.00
2018-08-23T20:28:55.372Z,95182.00
2018-08-23T20:31:25.350Z,95188.00
2018-08-23T20:33:55.457Z,95197.00
2018-08-23T20:36:25.466Z,95190.00
2018-08-23T20:38:55.495Z,95186.00
2018-08-23T20:41:25.498Z,95173.00
2018-08-23T20:43:55.497Z,95180.00
2018-08-23T20:46:25.488Z,95176.00
2018-08-23T20:48:55.483Z,95169.00
2018-08-23T20:51:25.598Z,95169.00
2018-08-23T20:53:55.899Z,95178.00
2018-08-23T20:56:25.698Z,95176.00
2018-08-23T20:58:55.718Z,95170.00
2018-08-23T21:01:25.834Z,95165.00
2018-08-23T21:03:55.558Z,95165.00
2018-08-23T21:06:25.870Z,95167.00
2018-08-23T21:08:55.886Z,95171.00
2018-08-23T21:11:25.801Z,95169.00
2018-08-23T21:13:55.767Z,95171.00
2018-08-23T21:16:25.918Z,95167.00
2018-08-23T21:18:55.865Z,95164.00
2018-08-23T21:21:25.871Z,95174.00
2018-08-23T21:23:55.890Z,95167.00
2018-08-23T21:26:25.929Z,95173.00
2018-08-23T21:28:55.969Z,95176.00
2018-08-23T21:31:25.974Z,95173.00
2018-08-23T21:33:55.987Z,95176.00
2018-08-23T21:36:27.102Z,95163.00
2018-08-23T21:38:56.299Z,95162.00
2018-08-23T21:41:26.098Z,95168.00
2018-08-23T21:43:56.263Z,95173.00
2018-08-23T21:46:27.283Z,95160.00
2018-08-23T21:48:56.687Z,95165.00
2018-08-23T21:51:27.587Z,95164.00
2018-08-23T21:53:56.726Z,95152.00
2018-08-23T21:56:26.234Z,95163.00
2018-08-23T21:58:56.348Z,95151.00
2018-08-23T22:01:27.478Z,95153.00
2018-08-23T22:03:56.649Z,95137.00
2018-08-23T22:11:23.324Z,95136.00
2018-08-23T22:13:52.461Z,95131.00
2018-08-23T22:16:21.637Z,95125.00
2018-08-23T22:18:50.936Z,95127.00
2018-08-23T22:21:20.186Z,95128.00
2018-08-23T22:23:49.400Z,95120.00
2018-08-23T22:26:18.532Z,95119.00
2018-08-23T22:28:47.746Z,95112.00
2018-08-23T22:31:16.927Z,95117.00
2018-08-23T22:33:46.162Z,95115.00
2018-08-23T22:36:15.475Z,95116.00
2018-08-23T22:38:44.692Z,95107.00
2018-08-23T22:41:13.766Z,95109.00
2018-08-23T22:43:42.913Z,95106.00
2018-08-23T22:46:12.050Z,95110.00
2018-08-23T22:48:41.287Z,95098.00
2018-08-23T22:51:10.422Z,95093.00
2018-08-23T22:53:39.642Z,95100.00
2018-08-23T22:56:08.890Z,95089.00
2018-08-23T22:58:38.081Z,95093.00
2018-08-23T23:01:07.303Z,95090.00
2018-08-23T23:03:41.850Z,95092.00
2018-08-23T23:06:10.935Z,95089.00
2018-08-23T23:08:40.155Z,95084.00
2018-08-23T23:11:09.338Z,95080.00
2018-08-23T23:13:38.547Z,95078.00
2018-08-23T23:16:07.760Z,95084.00
2018-08-23T23:18:36.883Z,95088.00
2018-08-23T23:21:06.100Z,95087.00
2018-08-23T23:23:35.178Z,95079.00
2018-08-23T23:26:04.314Z,95081.00
2018-08-23T23:28:33.570Z,95086.00
2018-08-23T23:31:02.796Z,95086.00
2018-08-23T23:33:31.930Z,95078.00
2018-08-23T23:36:01.105Z,95076.00
2018-08-23T23:38:30.310Z,95074.00
2018-08-23T23:40:59.518Z,95085.00
2018-08-23T23:43:28.758Z,95088.00
2018-08-23T23:45:57.944Z,95089.00
2018-08-23T23:48:28.578Z,95075.00
2018-08-23T23:50:57.658Z,95063.00
2018-08-23T23:53:28.377Z,95069.00
2018-08-23T23:55:57.590Z,95071.00
2018-08-23T23:58:28.559Z,95059.00
